Portada
METAR-TAF:

METAR-TAF

Aeroports :

Gorgan, Iran

latitud: 36-49N, longitud: 054-28E, altitud: 155 m

Observació

L'informe es va fer fa 34 minuts, a les 12:00 UTC
Vent calma
Temperatura 22°C
Humitat 69%
Pressió 1019 hPa
Visibilitat 10 km o més
Núvols disperses a una alçada de 2300 ft
Cel cobert a una alçada de 8000 ft

METAR: OING 251200Z 00000KT 9999 SCT023 OVC080 22/16 Q1019 NOSIG

Hora: 17:04 (12:34 UTC)


TAF: manca

Observacions i pronòstics meteorològics de més de 4000 aeroports (METAR i TAF).

Les estacions disponibles són els punts grocs i vermells al mapa.

Posi el ratolí al punt desitjat per veure el nom de l'estació.

Feu clic per veure les observacions i els pronòstics meteorològics.

Per canviar el mapa: feu clic els botons verds amb una creu de color negre per apropar; al botó verd amb un guió per allunyar la imatge; o en les fletxes verdes per a mapes adjacents.


METAR-TAF: